Time;durP1;ratioP1;P1;durP2;ratioP2;P2;SDS_P1;SDS_P2;PMS_P1;PMS_P2;Temp;Humidity;BMP_temperature;BMP_pressure;BME280_temperature;BME280_humidity;BME280_pressure;Samples;Min_cycle;Max_cycle;Signal;HPM_P1;HPM_P2
2022/12/01 00:01:22;;;;;;;48.95;23.33;;;;;;;7.19;100.00;96738.28;5067229;28;20111;-40
2022/12/01 00:03:50;;;;;;;48.97;23.05;;;;;;;6.99;100.00;96731.09;5067542;28;20068;-42
2022/12/01 00:06:20;;;;;;;44.38;21.85;;;;;;;7.32;100.00;96728.50;5067476;28;20477;-42
2022/12/01 00:11:37;;;;;;;43.30;22.10;;;;;;;7.39;100.00;96721.00;5062337;28;21879;-42
2022/12/01 00:14:06;;;;;;;49.72;22.75;;;;;;;7.34;100.00;96712.66;5061811;28;20520;-45
2022/12/01 00:16:35;;;;;;;48.17;23.10;;;;;;;7.51;100.00;96712.19;5067566;28;20086;-42
2022/12/01 00:19:03;;;;;;;45.03;23.23;;;;;;;7.69;100.00;96714.34;5066565;28;20080;-45
2022/12/01 00:21:31;;;;;;;45.63;21.48;;;;;;;7.57;100.00;96714.34;5069183;28;20067;-41
2022/12/01 00:24:00;;;;;;;50.55;23.77;;;;;;;7.31;100.00;96718.16;5067889;28;20463;-42
2022/12/01 00:26:28;;;;;;;47.67;24.17;;;;;;;7.66;100.00;96714.56;5068055;28;20075;-46
2022/12/01 00:28:57;;;;;;;47.90;23.60;;;;;;;7.70;100.00;96714.22;5067600;28;20738;-45
2022/12/01 00:31:27;;;;;;;50.20;23.42;;;;;;;7.45;100.00;96712.66;5061348;28;20098;-43
2022/12/01 00:33:56;;;;;;;51.55;26.63;;;;;;;7.47;100.00;96709.94;5066235;28;20076;-44
2022/12/01 00:36:24;;;;;;;49.00;23.35;;;;;;;7.48;100.00;96714.22;5067697;28;20084;-44
2022/12/01 00:38:53;;;;;;;59.45;25.90;;;;;;;7.72;100.00;96707.06;5066223;28;20076;-41
2022/12/01 00:41:22;;;;;;;50.83;24.50;;;;;;;7.71;100.00;96709.78;5067274;28;20475;-43
2022/12/01 00:43:51;;;;;;;51.17;24.42;;;;;;;7.67;100.00;96717.06;5055526;28;20085;-45
2022/12/01 00:46:19;;;;;;;51.25;24.48;;;;;;;8.09;100.00;96707.59;5065963;28;20076;-43
2022/12/01 00:48:49;;;;;;;48.65;23.35;;;;;;;8.22;100.00;96707.41;5061145;28;20084;-42
2022/12/01 00:51:17;;;;;;;51.80;25.63;;;;;;;8.03;100.00;96708.09;5067131;28;20110;-41
2022/12/01 00:53:45;;;;;;;53.90;24.23;;;;;;;7.87;100.00;96714.66;5066115;28;20281;-42
2022/12/01 00:56:14;;;;;;;55.28;24.50;;;;;;;7.79;100.00;96713.50;5067397;28;20083;-42
2022/12/01 00:58:43;;;;;;;54.45;25.63;;;;;;;7.26;100.00;96722.91;5067821;28;20479;-43
2022/12/01 01:01:11;;;;;;;49.95;24.73;;;;;;;7.50;100.00;96722.78;5065729;28;20593;-45
2022/12/01 01:03:39;;;;;;;52.85;24.63;;;;;;;7.78;100.00;96719.69;5067341;28;20121;-41
2022/12/01 01:06:11;;;;;;;57.67;24.83;;;;;;;7.66;100.00;96718.03;5066870;28;20084;-41
2022/12/01 01:08:40;;;;;;;57.72;24.85;;;;;;;7.81;100.00;96724.72;5062915;28;20076;-41
2022/12/01 01:11:09;;;;;;;64.95;27.25;;;;;;;7.51;100.00;96721.88;5066466;28;20080;-43
2022/12/01 01:13:37;;;;;;;65.43;25.98;;;;;;;7.61;100.00;96723.66;5059066;28;20102;-47
2022/12/01 01:16:09;;;;;;;59.05;26.42;;;;;;;7.44;100.00;96721.50;5063807;28;20072;-45
2022/12/01 01:18:37;;;;;;;54.72;24.45;;;;;;;7.65;100.00;96719.00;5062345;28;20063;-43
2022/12/01 01:21:08;;;;;;;52.33;24.27;;;;;;;7.48;100.00;96719.47;5067179;28;20084;-42
2022/12/01 01:23:37;;;;;;;55.30;25.30;;;;;;;7.78;100.00;96719.69;5064309;28;20084;-43
2022/12/01 01:26:08;;;;;;;58.28;25.05;;;;;;;7.89;100.00;96720.66;5065768;28;20080;-48
2022/12/01 01:28:36;;;;;;;54.60;24.50;;;;;;;7.70;100.00;96721.25;5062643;28;20076;-44
2022/12/01 01:31:06;;;;;;;56.40;24.30;;;;;;;7.97;100.00;96713.00;5063858;28;20524;-45
2022/12/01 01:33:34;;;;;;;55.10;24.90;;;;;;;7.87;100.00;96707.63;5061516;28;20076;-44
2022/12/01 01:36:04;;;;;;;57.20;25.35;;;;;;;8.01;100.00;96703.91;5066673;28;20087;-44
2022/12/01 01:38:33;;;;;;;51.65;25.10;;;;;;;8.12;100.00;96706.53;5066992;28;20539;-44
2022/12/01 01:41:04;;;;;;;53.22;24.42;;;;;;;8.06;100.00;96709.63;5066584;28;20084;-43
2022/12/01 01:43:42;;;;;;;53.53;24.98;;;;;;;8.06;100.00;96707.00;5065465;28;20075;-47
2022/12/01 01:46:12;;;;;;;54.00;24.42;;;;;;;8.07;100.00;96714.75;5066276;28;20192;-42
2022/12/01 01:48:42;;;;;;;57.10;25.95;;;;;;;8.08;100.00;96712.97;5065523;28;20118;-42
2022/12/01 01:51:12;;;;;;;54.92;26.05;;;;;;;8.24;100.00;96720.44;5063765;28;20044;-44
2022/12/01 01:53:40;;;;;;;59.35;24.95;;;;;;;8.15;100.00;96708.88;5065990;28;20068;-43
2022/12/01 01:56:10;;;;;;;50.35;23.08;;;;;;;8.09;100.00;96710.22;5066471;28;20090;-46
2022/12/01 01:58:39;;;;;;;60.17;27.13;;;;;;;8.11;100.00;96704.84;5064186;28;20080;-48
2022/12/01 02:01:07;;;;;;;54.17;25.67;;;;;;;8.15;100.00;96695.75;5064006;28;20076;-42
2022/12/01 02:03:37;;;;;;;54.00;25.42;;;;;;;8.24;100.00;96710.78;5059102;28;20079;-41
2022/12/01 02:06:06;;;;;;;57.75;25.90;;;;;;;8.34;100.00;96708.25;5067124;28;20068;-41
2022/12/01 02:08:36;;;;;;;60.78;26.25;;;;;;;8.39;100.00;96705.25;5064642;28;20088;-43
2022/12/01 02:11:25;;;;;;;57.70;25.88;;;;;;;8.23;100.00;96692.53;5064205;28;20064;-42
2022/12/01 02:14:01;;;;;;;52.92;25.17;;;;;;;8.27;100.00;96691.31;5065405;28;20079;-41
2022/12/01 02:16:37;;;;;;;55.63;24.40;;;;;;;8.19;100.00;96693.69;5066470;28;20080;-42
2022/12/01 02:19:22;;;;;;;60.22;26.35;;;;;;;8.22;100.00;96691.66;5064836;28;20492;-41
2022/12/01 02:21:57;;;;;;;54.78;24.15;;;;;;;7.98;100.00;96697.13;5065860;28;20467;-45
2022/12/01 02:25:10;;;;;;;53.55;23.55;;;;;;;8.14;100.00;96693.25;5066384;28;20079;-46
2022/12/01 02:28:17;;;;;;;57.42;24.88;;;;;;;8.08;100.00;96692.78;5040735;28;20487;-43
2022/12/01 02:30:48;;;;;;;54.42;23.92;;;;;;;8.06;100.00;96686.00;5053254;28;20088;-42
2022/12/01 02:33:19;;;;;;;53.25;24.55;;;;;;;8.05;100.00;96686.94;5065503;28;20527;-43
2022/12/01 02:35:48;;;;;;;;;;;;;;;8.12;100.00;96685.50;5065468;28;20068;-43
2022/12/01 02:38:23;;;;;;;59.28;23.48;;;;;;;8.12;100.00;96682.88;5066053;28;19967;-42
2022/12/01 02:40:55;;;;;;;52.75;23.63;;;;;;;8.09;100.00;96676.06;5066028;28;20531;-43
2022/12/01 02:43:27;;;;;;;53.15;23.98;;;;;;;8.09;100.00;96676.06;5061497;28;20075;-44
2022/12/01 02:46:00;;;;;;;58.45;23.70;;;;;;;8.07;100.00;96675.34;5066014;28;20086;-43
2022/12/01 02:48:30;;;;;;;53.08;24.58;;;;;;;8.19;100.00;96676.16;5066026;28;20462;-41
2022/12/01 02:51:02;;;;;;;57.95;24.75;;;;;;;8.30;100.00;96670.88;5066090;28;20099;-42
2022/12/01 02:53:30;;;;;;;51.05;23.92;;;;;;;8.32;100.00;96663.69;5062206;28;20563;-45
2022/12/01 02:55:59;;;;;;;60.90;26.13;;;;;;;8.18;100.00;96663.16;5059005;28;20558;-45
2022/12/01 02:58:27;;;;;;;53.10;25.27;;;;;;;8.15;100.00;96663.38;5064595;28;20069;-42
2022/12/01 03:01:06;;;;;;;59.28;26.30;;;;;;;8.14;100.00;96667.00;5074223;28;20076;-43
2022/12/01 03:03:45;;;;;;;49.17;24.15;;;;;;;8.17;100.00;96669.38;5062056;28;20115;-41
2022/12/01 03:06:20;;;;;;;51.13;23.95;;;;;;;8.12;100.00;96661.00;5067815;28;20087;-42
2022/12/01 03:08:52;;;;;;;50.10;24.05;;;;;;;8.13;100.00;96665.31;5068590;28;20102;-43
2022/12/01 03:11:28;;;;;;;50.50;24.02;;;;;;;8.14;100.00;96661.72;5069223;28;20080;-42
2022/12/01 03:14:06;;;;;;;49.42;24.75;;;;;;;8.13;100.00;96663.53;5066540;28;20080;-43
2022/12/01 03:16:41;;;;;;;48.85;24.65;;;;;;;8.15;100.00;96666.03;5068088;28;20088;-44
2022/12/01 03:19:13;;;;;;;48.28;23.13;;;;;;;7.97;100.00;96669.16;5067983;28;20079;-42
2022/12/01 03:21:42;;;;;;;43.40;21.67;;;;;;;8.03;100.00;96662.59;5062144;28;20075;-42
2022/12/01 03:24:13;;;;;;;43.43;22.77;;;;;;;8.19;100.00;96667.44;5066463;28;20535;-44
2022/12/01 03:26:45;;;;;;;46.85;22.83;;;;;;;8.08;100.00;96663.06;5062317;28;20080;-42
2022/12/01 03:29:16;;;;;;;47.38;23.25;;;;;;;8.12;100.00;96668.88;5064076;28;20079;-40
2022/12/01 03:31:47;;;;;;;43.80;22.52;;;;;;;7.89;100.00;96666.34;5067067;28;20083;-42
2022/12/01 03:34:19;;;;;;;45.13;22.85;;;;;;;8.00;100.00;96668.94;5068644;28;20509;-44
2022/12/01 03:36:50;;;;;;;46.53;23.27;;;;;;;8.04;100.00;96672.97;5067166;28;20079;-41
2022/12/01 03:39:21;;;;;;;41.55;22.05;;;;;;;7.71;100.00;96676.53;5065010;28;21614;-41
2022/12/01 03:41:56;;;;;;;43.40;22.77;;;;;;;7.59;100.00;96677.47;5069208;28;20068;-44
2022/12/01 03:44:27;;;;;;;43.35;22.70;;;;;;;7.74;100.00;96667.53;5069293;28;20091;-41
2022/12/01 03:47:00;;;;;;;45.45;22.27;;;;;;;7.72;100.00;96683.44;5059098;28;20076;-43
2022/12/01 03:49:29;;;;;;;41.97;21.67;;;;;;;7.75;100.00;96682.38;5065073;28;20079;-40
2022/12/01 03:52:05;;;;;;;44.90;21.30;;;;;;;7.95;100.00;96673.72;5068444;28;20072;-43
2022/12/01 03:54:44;;;;;;;43.80;22.85;;;;;;;7.74;100.00;96673.66;5070535;28;20076;-41
2022/12/01 03:57:17;;;;;;;43.97;22.20;;;;;;;7.53;100.00;96680.56;5068804;28;20100;-42
2022/12/01 03:59:46;;;;;;;42.28;21.83;;;;;;;7.78;100.00;96682.94;5068159;28;20083;-40
2022/12/01 04:02:16;;;;;;;42.67;22.27;;;;;;;7.93;100.00;96677.44;5067991;28;20076;-45
2022/12/01 04:04:45;;;;;;;41.90;21.10;;;;;;;7.99;100.00;96674.31;5066449;28;20076;-44
2022/12/01 04:07:13;;;;;;;43.63;21.92;;;;;;;7.90;100.00;96683.75;5067266;28;20475;-41
2022/12/01 04:09:42;;;;;;;44.55;22.35;;;;;;;8.01;100.00;96682.88;5067391;28;20064;-41
2022/12/01 04:12:31;;;;;;;44.28;22.23;;;;;;;7.92;100.00;96686.28;5062399;28;20044;-40
2022/12/01 04:15:02;;;;;;;44.60;22.85;;;;;;;7.74;100.00;96684.16;5061473;28;20068;-40
2022/12/01 04:17:32;;;;;;;43.65;21.58;;;;;;;7.86;100.00;96682.34;5066785;28;20080;-41
2022/12/01 04:20:00;;;;;;;41.58;22.33;;;;;;;7.85;100.00;96683.31;5063223;28;20071;-41
2022/12/01 04:22:29;;;;;;;41.90;22.00;;;;;;;7.89;100.00;96682.09;5067478;28;20074;-41
2022/12/01 04:24:57;;;;;;;41.17;21.58;;;;;;;8.08;100.00;96673.56;5066062;28;20076;-41
2022/12/01 04:27:25;;;;;;;41.80;21.98;;;;;;;7.90;100.00;96683.75;5069992;28;20084;-42
2022/12/01 04:29:54;;;;;;;42.03;22.40;;;;;;;8.18;100.00;96671.84;5069283;28;20098;-47
2022/12/01 04:32:22;;;;;;;41.65;20.98;;;;;;;7.75;100.00;96672.69;5063949;28;20069;-42
2022/12/01 04:34:52;;;;;;;38.72;20.45;;;;;;;7.76;100.00;96670.91;5061654;28;20538;-42
2022/12/01 04:37:20;;;;;;;37.38;20.40;;;;;;;7.85;100.00;96673.63;5059529;28;20072;-43
2022/12/01 04:39:48;;;;;;;41.67;21.08;;;;;;;7.56;100.00;96675.09;5061136;28;20132;-41
2022/12/01 04:42:17;;;;;;;39.03;20.85;;;;;;;7.82;100.00;96671.25;5059074;28;20084;-43
2022/12/01 04:44:45;;;;;;;39.72;20.48;;;;;;;7.90;100.00;96670.63;5063964;28;20067;-44
2022/12/01 04:47:14;;;;;;;38.03;20.40;;;;;;;7.68;100.00;96671.50;5080177;28;20072;-42
2022/12/01 04:49:42;;;;;;;39.38;21.13;;;;;;;7.71;100.00;96665.16;5059090;28;20063;-46
2022/12/01 04:52:12;;;;;;;42.05;21.50;;;;;;;7.64;100.00;96674.47;5063470;28;20087;-42
2022/12/01 04:54:40;;;;;;;38.70;22.02;;;;;;;7.65;100.00;96677.00;5060448;28;20590;-42
2022/12/01 04:57:09;;;;;;;37.50;19.73;;;;;;;7.56;100.00;96673.28;5066133;28;20695;-42
2022/12/01 04:59:37;;;;;;;38.22;21.45;;;;;;;7.26;100.00;96680.94;5061598;28;20080;-41
2022/12/01 05:02:05;;;;;;;43.60;22.25;;;;;;;7.68;100.00;96675.94;5063251;28;20515;-43
2022/12/01 05:04:37;;;;;;;36.40;19.58;;;;;;;7.64;100.00;96675.34;5060458;28;20110;-42
2022/12/01 05:07:05;;;;;;;38.22;19.75;;;;;;;7.85;100.00;96673.63;5061696;28;20084;-42
2022/12/01 05:09:35;;;;;;;41.15;21.75;;;;;;;7.78;100.00;96677.69;5060566;28;20084;-43
2022/12/01 05:12:04;;;;;;;39.13;20.58;;;;;;;7.83;100.00;96682.56;5065455;28;20084;-41
2022/12/01 05:14:32;;;;;;;35.25;19.20;;;;;;;8.01;100.00;96680.25;5068112;28;20539;-41
2022/12/01 05:17:01;;;;;;;40.40;21.00;;;;;;;7.66;100.00;96686.53;5069708;28;20453;-42
2022/12/01 05:22:18;;;;;;;41.90;21.40;;;;;;;7.49;100.00;96681.78;5045129;28;20084;-40
2022/12/01 05:25:08;;;;;;;41.28;20.65;;;;;;;7.89;100.00;96682.09;5068316;28;20141;-41
2022/12/01 05:27:36;;;;;;;36.65;19.63;;;;;;;7.79;100.00;96689.88;5068394;28;20084;-42
2022/12/01 05:30:06;;;;;;;40.10;21.02;;;;;;;7.88;100.00;96683.06;5069000;28;20141;-40
2022/12/01 05:32:34;;;;;;;37.20;19.63;;;;;;;7.83;100.00;96683.41;5064202;28;20084;-41
2022/12/01 05:35:02;;;;;;;41.50;20.83;;;;;;;7.99;100.00;96682.19;5069283;28;20883;-44
2022/12/01 05:37:33;;;;;;;37.22;19.70;;;;;;;8.00;100.00;96682.06;5068941;28;20064;-41
2022/12/01 05:40:01;;;;;;;;;;;;;;;7.98;100.00;96683.13;5069417;28;20091;-44
2022/12/01 05:42:31;;;;;;;39.78;19.58;;;;;;;7.47;100.00;96691.56;5069595;28;19963;-43
2022/12/01 05:44:59;;;;;;;38.00;20.43;;;;;;;7.73;100.00;96692.13;5069189;28;20057;-43
2022/12/01 05:47:27;;;;;;;37.38;20.45;;;;;;;7.52;100.00;96692.88;5068308;28;20584;-42
2022/12/01 05:49:56;;;;;;;35.67;19.05;;;;;;;7.69;100.00;96682.84;5069173;28;20084;-41
2022/12/01 05:52:33;;;;;;;35.72;19.63;;;;;;;7.87;100.00;96684.00;5068559;28;20081;-42
2022/12/01 05:55:01;;;;;;;35.78;20.05;;;;;;;8.02;100.00;96687.22;5068550;28;20088;-43
2022/12/01 05:57:31;;;;;;;39.20;20.08;;;;;;;7.68;100.00;96686.44;5069059;28;20092;-42
2022/12/01 06:00:00;;;;;;;37.38;20.35;;;;;;;7.96;100.00;96685.91;5068264;28;20558;-43
2022/12/01 06:02:28;;;;;;;37.00;19.75;;;;;;;8.06;100.00;96689.47;5068787;28;20459;-41
2022/12/01 06:04:56;;;;;;;35.70;19.40;;;;;;;8.06;100.00;96694.72;5069380;28;20523;-44
2022/12/01 06:07:25;;;;;;;39.92;19.63;;;;;;;7.93;100.00;96688.75;5068894;28;20080;-46
2022/12/01 06:09:53;;;;;;;36.42;18.73;;;;;;;7.95;100.00;96688.63;5068518;28;20060;-41
2022/12/01 06:12:21;;;;;;;37.30;20.35;;;;;;;7.82;100.00;96697.50;5068353;28;20080;-41
2022/12/01 06:14:51;;;;;;;37.38;20.70;;;;;;;7.80;100.00;96703.81;5068306;28;20091;-42
2022/12/01 06:17:19;;;;;;;36.80;20.63;;;;;;;7.89;100.00;96694.41;5068928;28;20076;-41
2022/12/01 06:19:48;;;;;;;34.55;19.02;;;;;;;8.13;100.00;96695.06;5068129;28;20076;-41
2022/12/01 06:22:16;;;;;;;34.60;19.80;;;;;;;8.10;100.00;96697.91;5068558;28;20457;-42
2022/12/01 06:24:45;;;;;;;38.60;20.20;;;;;;;7.94;100.00;96697.47;5069062;28;20072;-44
2022/12/01 06:27:13;;;;;;;34.67;20.02;;;;;;;8.00;100.00;96702.25;5068952;28;20064;-41
2022/12/01 06:29:42;;;;;;;38.38;20.15;;;;;;;8.00;100.00;96694.38;5068117;28;20467;-41
2022/12/01 06:32:11;;;;;;;43.03;20.75;;;;;;;7.98;100.00;96694.50;5067771;28;20068;-43
2022/12/01 06:34:40;;;;;;;36.53;20.20;;;;;;;8.06;100.00;96705.22;5068645;28;20086;-41
2022/12/01 06:37:08;;;;;;;34.28;19.27;;;;;;;8.06;100.00;96699.13;5061343;28;20083;-41
2022/12/01 06:39:36;;;;;;;35.28;19.15;;;;;;;8.15;100.00;96706.25;5070915;28;20091;-42
2022/12/01 06:42:05;;;;;;;36.85;19.92;;;;;;;8.17;100.00;96714.03;5070678;28;20080;-43
2022/12/01 06:44:33;;;;;;;34.40;18.63;;;;;;;8.21;100.00;96711.00;5072806;28;20532;-41
2022/12/01 06:47:02;;;;;;;35.28;19.25;;;;;;;8.15;100.00;96714.13;5065780;28;20111;-45
2022/12/01 06:49:31;;;;;;;38.35;20.20;;;;;;;8.16;100.00;96715.00;5065375;28;20084;-42
2022/12/01 06:52:00;;;;;;;40.20;19.77;;;;;;;7.98;100.00;96719.91;5066071;28;20480;-43
2022/12/01 06:54:28;;;;;;;36.78;19.90;;;;;;;8.07;100.00;96714.75;5066091;28;20064;-41
2022/12/01 06:56:57;;;;;;;39.95;21.20;;;;;;;7.85;100.00;96713.00;5064541;28;20119;-44
2022/12/01 06:59:26;;;;;;;37.38;19.52;;;;;;;7.84;100.00;96708.72;5067037;28;20080;-43
2022/12/01 07:01:56;;;;;;;36.05;19.60;;;;;;;7.91;100.00;96716.91;5072102;28;20080;-46
2022/12/01 07:04:24;;;;;;;35.17;19.65;;;;;;;8.04;100.00;96715.00;5071707;28;20071;-49
2022/12/01 07:06:54;;;;;;;40.20;20.10;;;;;;;7.73;100.00;96716.59;5071958;28;20087;-43
2022/12/01 07:09:22;;;;;;;36.20;20.15;;;;;;;7.59;100.00;96720.28;5071216;28;20075;-44
2022/12/01 07:11:51;;;;;;;35.42;19.30;;;;;;;7.93;100.00;96717.66;5071560;28;20076;-43
2022/12/01 07:14:22;;;;;;;37.85;20.38;;;;;;;7.89;100.00;96720.66;5071370;28;20080;-41
2022/12/01 07:16:51;;;;;;;35.80;20.05;;;;;;;7.96;100.00;96720.03;5072297;28;20079;-44
2022/12/01 07:19:19;;;;;;;38.50;20.27;;;;;;;8.13;100.00;96716.06;5071366;28;20079;-44
2022/12/01 07:21:47;;;;;;;36.67;20.45;;;;;;;8.03;100.00;96715.13;5071627;28;20084;-46
2022/12/01 07:24:17;;;;;;;34.63;19.40;;;;;;;7.84;100.00;96721.84;5071036;28;20107;-44
2022/12/01 07:26:47;;;;;;;35.57;18.97;;;;;;;8.05;100.00;96721.06;5072118;28;20079;-42
2022/12/01 07:29:15;;;;;;;37.85;19.95;;;;;;;7.93;100.00;96728.16;5070871;28;20091;-43
2022/12/01 07:31:43;;;;;;;34.22;19.55;;;;;;;8.24;100.00;96726.53;5071320;28;20072;-42
2022/12/01 07:34:12;;;;;;;33.03;18.08;;;;;;;8.18;100.00;96731.44;5071308;28;20659;-42
2022/12/01 07:36:41;;;;;;;38.75;19.95;;;;;;;8.13;100.00;96731.81;5071255;28;20466;-44
2022/12/01 07:39:09;;;;;;;39.00;21.65;;;;;;;7.94;100.00;96729.81;5070307;28;20068;-42
2022/12/01 07:41:39;;;;;;;34.63;18.95;;;;;;;7.92;100.00;96725.66;5070428;28;20080;-43
2022/12/01 07:44:09;;;;;;;34.50;19.70;;;;;;;8.11;100.00;96731.09;5070004;28;20048;-43
2022/12/01 07:46:37;;;;;;;36.30;20.23;;;;;;;8.13;100.00;96731.81;5071497;28;20080;-43
2022/12/01 07:49:07;;;;;;;38.25;20.55;;;;;;;8.37;100.00;96731.63;5070917;28;20084;-43
2022/12/01 07:51:35;;;;;;;39.45;19.80;;;;;;;8.51;100.00;96735.81;5069701;28;20103;-45
2022/12/01 07:54:05;;;;;;;42.25;20.88;;;;;;;8.46;100.00;96736.16;5064309;28;20080;-43
2022/12/01 07:56:33;;;;;;;38.17;20.88;;;;;;;8.57;100.00;96740.56;5071400;28;20080;-42
2022/12/01 07:59:03;;;;;;;36.20;20.00;;;;;;;8.83;100.00;96733.16;5070114;28;20083;-46
2022/12/01 08:01:31;;;;;;;36.17;19.70;;;;;;;8.81;100.00;96735.09;5070238;28;20088;-41
2022/12/01 08:04:00;;;;;;;37.38;18.90;;;;;;;8.80;100.00;96730.78;5070673;28;20060;-45
2022/12/01 08:06:28;;;;;;;35.67;19.17;;;;;;;8.85;100.00;96730.41;5069828;28;20087;-42
2022/12/01 08:08:56;;;;;;;36.58;19.75;;;;;;;8.74;100.00;96736.53;5069138;28;20089;-42
2022/12/01 08:11:28;;;;;;;34.10;19.65;;;;;;;8.74;100.00;96741.78;5070918;28;20079;-43
2022/12/01 08:13:56;;;;;;;37.05;19.23;;;;;;;8.77;100.00;96739.78;5070534;28;20084;-43
2022/12/01 08:16:26;;;;;;;35.83;20.23;;;;;;;8.69;100.00;96747.44;5070497;28;20566;-47
2022/12/01 08:18:54;;;;;;;32.20;18.83;;;;;;;8.73;100.00;96746.22;5070414;28;20092;-42
2022/12/01 08:21:23;;;;;;;35.70;20.10;;;;;;;8.75;100.00;96746.13;5070353;28;20095;-46
2022/12/01 08:23:53;;;;;;;35.47;19.67;;;;;;;8.77;100.00;96752.06;5070528;28;20088;-42
2022/12/01 08:26:22;;;;;;;37.20;20.52;;;;;;;8.78;100.00;96743.22;5070308;28;20773;-45
2022/12/01 08:28:50;;;;;;;32.78;19.20;;;;;;;8.60;100.00;96742.91;5066168;28;20088;-44
2022/12/01 08:31:20;;;;;;;35.40;19.17;;;;;;;8.75;100.00;96739.06;5069206;28;20084;-42
2022/12/01 08:33:50;;;;;;;33.78;19.70;;;;;;;8.82;100.00;96741.19;5070287;28;20532;-42
2022/12/01 08:36:20;;;;;;;39.50;20.63;;;;;;;8.83;100.00;96751.56;5069961;28;20068;-44
2022/12/01 08:38:50;;;;;;;37.90;19.65;;;;;;;9.10;100.00;96737.91;5069589;28;20118;-42
2022/12/01 08:41:19;;;;;;;35.28;19.08;;;;;;;9.14;100.00;96747.22;5069649;28;20076;-46
2022/12/01 08:43:47;;;;;;;39.30;20.38;;;;;;;8.99;100.00;96745.88;5070335;28;20091;-41
2022/12/01 08:46:26;;;;;;;37.03;19.42;;;;;;;8.97;100.00;96751.25;5070477;28;20084;-42
2022/12/01 08:48:56;;;;;;;44.72;21.42;;;;;;;8.94;100.00;96745.41;5069595;28;20483;-47
2022/12/01 08:51:25;;;;;;;;;;;;;;;9.07;100.00;96748.69;5070576;28;20076;-41
2022/12/01 08:53:55;;;;;;;37.55;19.55;;;;;;;9.23;100.00;96743.81;5069619;28;19974;-42
2022/12/01 08:56:25;;;;;;;34.72;20.10;;;;;;;8.63;100.00;96744.47;5066714;28;20067;-42
2022/12/01 08:58:54;;;;;;;33.38;19.40;;;;;;;9.02;100.00;96745.63;5069197;28;20084;-42
2022/12/01 09:01:24;;;;;;;34.47;19.00;;;;;;;9.07;100.00;96745.22;5069444;28;20552;-41
2022/12/01 09:04:04;;;;;;;37.42;20.00;;;;;;;9.31;100.00;96758.13;5069927;28;20506;-41
2022/12/01 09:06:38;;;;;;;34.42;20.25;;;;;;;9.03;100.00;96744.66;5068184;28;20186;-42
2022/12/01 09:09:06;;;;;;;35.22;19.52;;;;;;;9.02;100.00;96750.88;5069415;28;20088;-41
2022/12/01 09:11:35;;;;;;;33.15;19.30;;;;;;;9.19;100.00;96747.69;5069226;28;20589;-44
2022/12/01 09:14:03;;;;;;;31.80;18.45;;;;;;;9.19;100.00;96746.84;5069863;28;20086;-42
2022/12/01 09:16:32;;;;;;;31.48;18.38;;;;;;;8.63;100.00;96753.19;5069704;28;20080;-43
2022/12/01 09:19:00;;;;;;;32.30;18.88;;;;;;;9.06;100.00;96757.56;5069110;28;20088;-45
2022/12/01 09:21:30;;;;;;;30.95;17.77;;;;;;;9.03;100.00;96750.75;5069891;28;20098;-44
2022/12/01 09:24:00;;;;;;;32.78;19.20;;;;;;;8.86;100.00;96753.13;5069685;28;20537;-43
2022/12/01 09:26:29;;;;;;;37.00;20.95;;;;;;;9.06;100.00;96756.72;5069889;28;20076;-44
2022/12/01 09:28:58;;;;;;;36.03;18.38;;;;;;;8.75;100.00;96764.53;5068907;28;20130;-45
2022/12/01 09:31:27;;;;;;;34.38;19.10;;;;;;;8.54;100.00;96759.22;5068683;28;20083;-45
2022/12/01 09:33:56;;;;;;;34.03;18.55;;;;;;;8.74;100.00;96755.81;5068952;28;20460;-47
2022/12/01 09:36:25;;;;;;;34.65;19.73;;;;;;;8.59;100.00;96753.56;5069090;28;20531;-44
2022/12/01 09:38:53;;;;;;;34.58;19.38;;;;;;;8.85;100.00;96754.09;5068712;28;20482;-47
2022/12/01 09:41:25;;;;;;;30.48;17.33;;;;;;;8.69;100.00;96747.44;5068544;28;20091;-48
2022/12/01 09:44:00;;;;;;;30.30;17.63;;;;;;;8.91;100.00;96743.03;5068599;28;20531;-42
2022/12/01 09:46:32;;;;;;;35.35;18.55;;;;;;;8.43;100.00;96753.97;5065384;28;20082;-42
2022/12/01 09:49:01;;;;;;;31.20;18.30;;;;;;;8.81;100.00;96748.25;5068658;28;20096;-48
2022/12/01 09:51:33;;;;;;;35.60;18.98;;;;;;;8.97;100.00;96747.78;5069178;28;20084;-42
2022/12/01 09:54:02;;;;;;;37.22;20.10;;;;;;;8.88;100.00;96744.16;5068490;28;20645;-44
2022/12/01 09:56:42;;;;;;;33.58;18.05;;;;;;;8.39;100.00;96740.25;5068434;28;20095;-47
2022/12/01 09:59:17;;;;;;;35.72;19.02;;;;;;;8.84;100.00;96740.06;5068294;28;20095;-43
2022/12/01 10:01:48;;;;;;;33.65;18.95;;;;;;;9.11;100.00;96739.56;5068885;28;20536;-44
2022/12/01 10:04:21;;;;;;;36.80;20.63;;;;;;;9.10;100.00;96731.81;5068952;28;20499;-46
2022/12/01 10:06:52;;;;;;;36.10;18.77;;;;;;;9.19;100.00;96738.97;5068711;28;20077;-41
2022/12/01 10:09:25;;;;;;;37.97;21.63;;;;;;;8.39;100.00;96735.00;5062349;28;20080;-44
2022/12/01 10:12:01;;;;;;;38.42;19.42;;;;;;;8.59;100.00;96733.38;5068940;28;20076;-43
2022/12/01 10:14:30;;;;;;;38.78;21.50;;;;;;;8.54;100.00;96732.94;5071846;28;20091;-45
2022/12/01 10:17:03;;;;;;;42.13;20.35;;;;;;;8.67;100.00;96728.34;5072698;28;20488;-43
2022/12/01 10:19:34;;;;;;;36.08;20.63;;;;;;;8.56;100.00;96721.31;5072722;28;20098;-45
2022/12/01 10:22:19;;;;;;;39.00;21.40;;;;;;;8.51;100.00;96714.78;5072913;28;20124;-45
2022/12/01 10:24:55;;;;;;;42.85;21.63;;;;;;;8.40;100.00;96717.47;5071373;28;20084;-46
2022/12/01 10:27:46;;;;;;;41.25;21.10;;;;;;;8.69;100.00;96720.31;5072578;28;20076;-42
2022/12/01 10:30:15;;;;;;;41.45;20.48;;;;;;;8.89;100.00;96714.25;5070110;28;20088;-42
2022/12/01 10:32:51;;;;;;;42.22;22.48;;;;;;;8.33;100.00;96711.84;5072336;28;20088;-44
2022/12/01 10:35:21;;;;;;;44.83;21.55;;;;;;;8.91;100.00;96707.06;5072562;28;20080;-42
2022/12/01 10:37:54;;;;;;;42.78;21.40;;;;;;;8.83;100.00;96711.28;5072313;28;20088;-41
2022/12/01 10:40:22;;;;;;;43.40;21.58;;;;;;;8.67;100.00;96706.44;5072759;28;20088;-41
2022/12/01 10:42:52;;;;;;;37.58;19.15;;;;;;;9.16;100.00;96703.22;5070633;28;20075;-46
2022/12/01 10:45:27;;;;;;;38.80;19.40;;;;;;;8.84;100.00;96697.16;5072286;28;20091;-45
2022/12/01 10:48:11;;;;;;;40.00;20.38;;;;;;;8.91;100.00;96707.06;5065843;28;20084;-42
2022/12/01 10:50:40;;;;;;;37.58;19.58;;;;;;;9.45;100.00;96700.72;5068908;28;20547;-41
2022/12/01 10:53:25;;;;;;;37.42;19.33;;;;;;;9.00;100.00;96708.91;5072093;28;20123;-43
2022/12/01 10:56:02;;;;;;;35.55;18.67;;;;;;;9.18;100.00;96698.63;5070205;28;20076;-47
2022/12/01 10:58:33;;;;;;;46.10;20.55;;;;;;;9.28;100.00;96691.63;5072027;28;20080;-43
2022/12/01 11:01:04;;;;;;;34.80;18.95;;;;;;;9.11;100.00;96688.75;5067557;28;20084;-43
2022/12/01 11:03:35;;;;;;;35.33;18.00;;;;;;;9.23;100.00;96696.47;5065889;28;20084;-44
2022/12/01 11:06:05;;;;;;;35.17;18.30;;;;;;;9.32;100.00;96694.00;5071994;28;20083;-43
2022/12/01 11:08:39;;;;;;;35.63;17.52;;;;;;;9.63;100.00;96689.56;5071983;28;20088;-41
2022/12/01 11:11:24;;;;;;;36.20;18.73;;;;;;;9.70;100.00;96691.53;5071688;28;20519;-44
2022/12/01 11:13:54;;;;;;;38.75;18.58;;;;;;;9.36;100.00;96684.88;5072236;28;20076;-41
2022/12/01 11:16:38;;;;;;;38.90;19.98;;;;;;;9.62;100.00;96683.47;5071837;28;20068;-41
2022/12/01 11:19:20;;;;;;;39.28;19.92;;;;;;;9.45;100.00;96686.72;5064956;28;20540;-43
2022/12/01 11:21:55;;;;;;;40.28;19.58;;;;;;;9.56;100.00;96683.97;5067398;28;20087;-45
2022/12/01 11:24:43;;;;;;;38.05;19.00;;;;;;;9.64;100.00;96680.72;5069903;28;20091;-44
2022/12/01 11:27:17;;;;;;;36.17;18.00;;;;;;;9.27;100.00;96687.34;5071085;28;20084;-44
2022/12/01 11:29:49;;;;;;;35.03;19.10;;;;;;;9.13;100.00;96684.22;5067554;28;20087;-44
2022/12/01 11:32:22;;;;;;;39.10;20.45;;;;;;;8.86;100.00;96682.94;5068779;28;20465;-44
2022/12/01 11:34:53;;;;;;;36.75;18.27;;;;;;;8.74;100.00;96676.91;5071660;28;20084;-43
2022/12/01 11:37:24;;;;;;;36.45;18.92;;;;;;;8.99;100.00;96674.84;5070357;28;20068;-44
2022/12/01 11:39:52;;;;;;;37.28;20.77;;;;;;;9.00;100.00;96677.34;5071182;28;20067;-41